createdAt,value
2018-07-15T00:00:01.582Z,79.87
2018-07-15T00:05:01.479Z,79.87
2018-07-15T00:10:01.554Z,80.32
2018-07-15T00:15:01.483Z,80.32
2018-07-15T00:25:01.484Z,81.05
2018-07-15T00:30:01.622Z,80.60
2018-07-15T00:35:01.553Z,80.60
2018-07-15T00:45:01.568Z,81.10
2018-07-15T00:50:01.567Z,82.30
2018-07-15T00:55:01.498Z,82.30
2018-07-15T01:00:01.503Z,81.83
2018-07-15T01:10:01.576Z,81.37
2018-07-15T01:15:01.501Z,81.37
2018-07-15T01:20:01.586Z,81.98
2018-07-15T01:30:01.523Z,82.52
2018-07-15T01:45:01.527Z,82.22
2018-07-15T01:55:01.544Z,81.75
2018-07-15T02:00:01.505Z,82.17
2018-07-15T02:10:01.598Z,80.60
2018-07-15T02:15:01.539Z,80.60
2018-07-15T02:20:01.496Z,80.76
2018-07-15T02:30:01.504Z,80.99
2018-07-15T02:35:01.555Z,80.99
2018-07-15T02:40:01.551Z,80.87
2018-07-15T02:45:01.511Z,80.87
2018-07-15T03:00:01.535Z,81.38
2018-07-15T03:15:01.559Z,80.57
2018-07-15T03:20:01.562Z,80.96
2018-07-15T03:30:01.524Z,81.14
2018-07-15T03:45:01.489Z,81.13
2018-07-15T03:55:01.529Z,81.32
2018-07-15T04:00:01.539Z,82.09
2018-07-15T04:10:01.549Z,83.65
2018-07-15T04:15:01.499Z,83.65
2018-07-15T04:20:01.543Z,83.42
2018-07-15T04:25:01.546Z,83.42
2018-07-15T04:30:01.548Z,83.71
2018-07-15T04:35:01.562Z,83.71
2018-07-15T04:40:01.479Z,84.74
2018-07-15T04:45:01.536Z,84.74
2018-07-15T04:50:01.549Z,86.44
2018-07-15T04:55:01.541Z,86.44
2018-07-15T05:00:01.541Z,85.65
2018-07-15T05:05:01.541Z,85.65
2018-07-15T05:10:01.542Z,82.77
2018-07-15T05:15:01.711Z,82.77
2018-07-15T05:20:01.569Z,84.21
2018-07-15T05:25:01.969Z,84.21
2018-07-15T05:30:01.527Z,84.04
2018-07-15T05:35:02.055Z,84.04
2018-07-15T05:40:01.559Z,83.57
2018-07-15T05:45:01.544Z,83.57
2018-07-15T05:50:01.598Z,82.51
2018-07-15T05:55:01.542Z,82.51
2018-07-15T06:00:01.769Z,81.94
2018-07-15T06:05:01.549Z,81.94
2018-07-15T06:10:01.653Z,81.46
2018-07-15T06:15:01.735Z,81.46
2018-07-15T06:20:01.579Z,79.95
2018-07-15T06:25:01.556Z,79.95
2018-07-15T06:30:01.812Z,77.98
2018-07-15T06:35:01.591Z,77.98
2018-07-15T06:40:01.722Z,73.49
2018-07-15T06:45:01.723Z,73.49
2018-07-15T06:50:01.663Z,70.93
2018-07-15T06:55:01.551Z,70.93
2018-07-15T07:00:01.853Z,68.79
2018-07-15T07:05:01.665Z,68.79
2018-07-15T07:11:01.604Z,67.22
2018-07-15T07:16:01.545Z,67.22
2018-07-15T07:21:01.815Z,65.77
2018-07-15T07:26:01.545Z,65.77
2018-07-15T07:31:01.561Z,65.16
2018-07-15T07:36:01.592Z,65.16
2018-07-15T07:41:01.555Z,63.23
2018-07-15T07:46:01.614Z,63.23
2018-07-15T07:51:01.608Z,61.41
2018-07-15T07:56:01.566Z,61.41
2018-07-15T08:01:01.557Z,60.06
2018-07-15T08:06:01.555Z,60.06
2018-07-15T08:11:01.884Z,58.43
2018-07-15T08:16:01.793Z,58.43
2018-07-15T08:21:01.551Z,58.38
2018-07-15T08:26:01.541Z,58.38
2018-07-15T08:31:01.681Z,55.99
2018-07-15T08:36:01.648Z,55.99
2018-07-15T08:41:01.649Z,54.67
2018-07-15T08:46:01.816Z,54.67
2018-07-15T08:51:01.642Z,53.96
2018-07-15T08:56:01.560Z,53.96
2018-07-15T09:02:01.544Z,53.72
2018-07-15T09:07:01.539Z,53.72
2018-07-15T09:12:01.609Z,53.53
2018-07-15T09:17:01.641Z,53.53
2018-07-15T09:22:01.617Z,51.82
2018-07-15T09:27:01.541Z,51.82
2018-07-15T09:32:01.601Z,50.48
2018-07-15T09:37:01.550Z,50.48
2018-07-15T09:42:01.601Z,50.99
2018-07-15T09:47:01.601Z,50.99
2018-07-15T09:52:01.611Z,52.25
2018-07-15T10:02:01.406Z,51.12
2018-07-15T10:12:01.590Z,49.67
2018-07-15T10:17:01.641Z,49.67
2018-07-15T10:22:01.592Z,50.59
2018-07-15T10:27:01.547Z,50.59
2018-07-15T10:37:01.658Z,52.39
2018-07-15T10:42:01.602Z,51.61
2018-07-15T10:52:01.612Z,49.14
2018-07-15T10:57:01.569Z,49.14
2018-07-15T11:02:01.649Z,50.42
2018-07-15T11:07:01.657Z,50.42
2018-07-15T11:12:01.612Z,47.17
2018-07-15T11:17:01.542Z,47.17
2018-07-15T11:22:01.595Z,45.24
2018-07-15T11:27:01.542Z,45.24
2018-07-15T11:32:01.570Z,46.70
2018-07-15T11:42:01.566Z,44.55
2018-07-15T11:47:01.619Z,44.55
2018-07-15T11:52:01.601Z,43.76
2018-07-15T11:57:01.554Z,43.76
2018-07-15T12:02:01.954Z,44.43
2018-07-15T12:13:01.592Z,42.28
2018-07-15T12:18:01.608Z,42.28
2018-07-15T12:23:01.590Z,44.99
2018-07-15T12:28:01.549Z,44.99
2018-07-15T12:33:01.557Z,42.52
2018-07-15T12:38:01.558Z,42.52
2018-07-15T12:43:01.666Z,44.54
2018-07-15T12:53:01.672Z,46.11
2018-07-15T12:58:01.540Z,46.11
2018-07-15T13:03:01.544Z,47.36
2018-07-15T13:08:01.536Z,47.36
2018-07-15T13:13:01.610Z,47.06
2018-07-15T13:18:01.534Z,47.06
2018-07-15T13:23:01.597Z,44.42
2018-07-15T13:28:01.539Z,44.42
2018-07-15T13:33:01.557Z,42.80
2018-07-15T13:38:01.578Z,42.80
2018-07-15T13:43:01.609Z,40.65
2018-07-15T13:48:01.555Z,40.65
2018-07-15T13:53:01.600Z,39.29
2018-07-15T13:58:01.567Z,39.29
2018-07-15T14:03:01.538Z,38.14
2018-07-15T14:08:01.558Z,38.14
2018-07-15T14:13:01.618Z,38.21
2018-07-15T14:18:01.564Z,38.21
2018-07-15T14:23:01.614Z,38.28
2018-07-15T14:28:01.987Z,38.28
2018-07-15T14:33:01.588Z,36.99
2018-07-15T14:38:01.900Z,36.99
2018-07-15T14:43:01.607Z,36.86
2018-07-15T14:48:01.539Z,36.86
2018-07-15T14:53:01.671Z,36.57
2018-07-15T15:03:01.407Z,36.74
2018-07-15T15:18:01.399Z,36.17
2018-07-15T15:33:01.409Z,36.00
2018-07-15T15:43:01.635Z,35.34
2018-07-15T15:58:01.668Z,36.81
2018-07-15T16:14:01.575Z,36.49
2018-07-15T16:19:01.709Z,39.38
2018-07-15T16:24:01.575Z,39.38
2018-07-15T16:29:01.610Z,41.39
2018-07-15T16:34:01.716Z,41.39
2018-07-15T16:39:01.805Z,41.40
2018-07-15T16:44:01.744Z,41.40
2018-07-15T16:49:01.766Z,42.25
2018-07-15T16:54:01.700Z,42.25
2018-07-15T16:59:01.675Z,42.59
2018-07-15T17:04:01.656Z,42.59
2018-07-15T17:09:01.663Z,44.43
2018-07-15T17:14:01.661Z,44.43
2018-07-15T17:19:01.671Z,44.30
2018-07-15T17:29:01.693Z,43.78
2018-07-15T17:34:01.749Z,43.78
2018-07-15T17:39:01.703Z,45.55
2018-07-15T17:49:01.680Z,45.92
2018-07-15T17:59:01.674Z,47.36
2018-07-15T18:09:01.715Z,48.83
2018-07-15T18:15:01.657Z,48.83
2018-07-15T18:20:01.676Z,49.82
2018-07-15T18:25:01.660Z,49.82
2018-07-15T18:30:01.763Z,50.58
2018-07-15T18:35:01.684Z,50.58
2018-07-15T18:40:01.664Z,51.60
2018-07-15T18:45:02.168Z,51.60
2018-07-15T18:50:01.681Z,52.52
2018-07-15T18:55:01.674Z,52.52
2018-07-15T19:00:02.699Z,54.28
2018-07-15T19:05:01.658Z,54.28
2018-07-15T19:10:01.673Z,56.00
2018-07-15T19:15:01.734Z,56.00
2018-07-15T19:20:01.679Z,57.59
2018-07-15T19:25:01.669Z,57.59
2018-07-15T19:30:01.680Z,58.38
2018-07-15T19:35:01.775Z,58.38
2018-07-15T19:40:01.693Z,58.46
2018-07-15T19:45:01.674Z,58.46
2018-07-15T19:50:01.677Z,59.91
2018-07-15T19:55:01.663Z,59.91
2018-07-15T20:00:01.679Z,61.33
2018-07-15T20:05:01.731Z,61.33
2018-07-15T20:10:01.663Z,62.54
2018-07-15T20:15:01.672Z,62.54
2018-07-15T20:20:01.660Z,63.36
2018-07-15T20:25:01.676Z,63.36
2018-07-15T20:30:01.669Z,63.83
2018-07-15T20:40:01.699Z,65.29
2018-07-15T20:45:01.876Z,65.29
2018-07-15T20:50:01.682Z,65.93
2018-07-15T20:56:01.708Z,65.93
2018-07-15T21:01:01.678Z,66.81
2018-07-15T21:06:01.666Z,66.81
2018-07-15T21:11:01.667Z,67.61
2018-07-15T21:16:01.670Z,67.61
2018-07-15T21:21:01.542Z,68.39
2018-07-15T21:26:01.664Z,68.39
2018-07-15T21:31:01.812Z,68.54
2018-07-15T21:41:01.650Z,68.30
2018-07-15T21:51:01.685Z,69.25
2018-07-15T21:56:01.519Z,69.25
2018-07-15T22:01:01.621Z,69.64
2018-07-15T22:06:01.526Z,69.64
2018-07-15T22:11:01.602Z,70.66
2018-07-15T22:16:01.528Z,70.66
2018-07-15T22:21:01.556Z,71.12
2018-07-15T22:26:01.532Z,71.12
2018-07-15T22:31:01.698Z,71.63
2018-07-15T22:41:01.649Z,72.05
2018-07-15T22:46:01.585Z,72.05
2018-07-15T23:01:01.623Z,72.52
2018-07-15T23:16:01.592Z,72.39
2018-07-15T23:31:01.743Z,73.10
2018-07-15T23:36:01.543Z,73.10
2018-07-15T23:46:01.568Z,73.31
2018-07-15T23:51:01.613Z,73.72
